Time;durP1;ratioP1;P1;durP2;ratioP2;P2;SDS_P1;SDS_P2;PMS_P1;PMS_P2;Temp;Humidity;BMP_temperature;BMP_pressure;BME280_temperature;BME280_humidity;BME280_pressure;Samples;Min_cycle;Max_cycle;Signal;HPM_P1;HPM_P2
2023/11/01 00:01:52;;;;;;;22.67;13.73;;;;;;;9.97;99.71;98301.75;5055940;28;20049;-59
2023/11/01 00:04:17;;;;;;;23.23;13.57;;;;;;;9.93;99.33;98289.28;5052327;28;20041;-61
2023/11/01 00:06:43;;;;;;;23.60;14.68;;;;;;;9.93;99.56;98286.66;5051729;28;20037;-60
2023/11/01 00:09:09;;;;;;;23.77;13.90;;;;;;;9.92;99.77;98275.25;5051944;28;20037;-61
2023/11/01 00:11:34;;;;;;;26.27;14.80;;;;;;;9.95;99.80;98281.91;5051763;28;20048;-60
2023/11/01 00:14:00;;;;;;;23.33;14.63;;;;;;;9.92;100.00;98271.81;5052135;28;20055;-61
2023/11/01 00:16:26;;;;;;;27.35;14.80;;;;;;;9.93;99.92;98265.47;5051842;28;20099;-60
2023/11/01 00:18:52;;;;;;;22.70;14.00;;;;;;;9.90;100.00;98266.00;5052141;28;20059;-59
2023/11/01 00:21:17;;;;;;;25.00;15.13;;;;;;;9.90;100.00;98274.72;5052045;28;20059;-59
2023/11/01 00:23:43;;;;;;;20.50;13.32;;;;;;;9.90;100.00;98266.78;5051624;28;20068;-60
2023/11/01 00:26:08;;;;;;;26.20;15.27;;;;;;;9.93;100.00;98257.53;5050231;28;20045;-61
2023/11/01 00:28:34;;;;;;;24.65;14.57;;;;;;;9.93;100.00;98254.88;5051477;28;20049;-59
2023/11/01 00:31:01;;;;;;;25.55;14.48;;;;;;;9.97;100.00;98256.75;5051462;28;20044;-61
2023/11/01 00:33:26;;;;;;;20.35;13.50;;;;;;;9.98;100.00;98252.25;5050723;28;20502;-59
2023/11/01 00:35:52;;;;;;;26.55;14.90;;;;;;;9.98;100.00;98245.09;5051309;28;20055;-60
2023/11/01 00:38:23;;;;;;;25.50;14.50;;;;;;;9.98;100.00;98239.00;5051442;28;20253;-59
2023/11/01 00:40:49;;;;;;;21.35;13.77;;;;;;;9.95;100.00;98226.31;5066073;28;20445;-59
2023/11/01 00:43:16;;;;;;;25.08;13.85;;;;;;;9.94;100.00;98227.34;5053694;28;20067;-60
2023/11/01 00:45:41;;;;;;;28.00;14.68;;;;;;;9.96;100.00;98227.88;5070171;28;20044;-59
2023/11/01 00:48:07;;;;;;;23.85;14.75;;;;;;;9.98;100.00;98231.88;5070531;28;20049;-59
2023/11/01 00:50:32;;;;;;;22.17;14.45;;;;;;;9.99;100.00;98225.50;5071507;28;20509;-61
2023/11/01 00:52:58;;;;;;;24.20;14.80;;;;;;;10.01;100.00;98230.56;5070239;28;20084;-60
2023/11/01 00:55:24;;;;;;;25.33;15.30;;;;;;;10.00;100.00;98228.97;5070486;28;20046;-60
2023/11/01 00:57:49;;;;;;;23.63;13.93;;;;;;;10.05;100.00;98230.81;5070165;28;20064;-59
2023/11/01 01:00:16;;;;;;;23.45;14.63;;;;;;;10.10;100.00;98217.59;5069169;28;20048;-62
2023/11/01 01:02:42;;;;;;;22.33;13.80;;;;;;;10.14;100.00;98227.38;5063390;28;20072;-59
2023/11/01 01:05:08;;;;;;;25.20;14.27;;;;;;;10.17;100.00;98228.72;5048645;28;20510;-60
2023/11/01 01:07:34;;;;;;;22.38;13.20;;;;;;;10.21;100.00;98232.44;5052266;28;20079;-61
2023/11/01 01:09:59;;;;;;;20.70;13.75;;;;;;;10.26;100.00;98234.28;5053874;28;20055;-61
2023/11/01 01:12:25;;;;;;;20.20;13.00;;;;;;;10.29;100.00;98218.69;5071615;28;20037;-59
2023/11/01 01:14:50;;;;;;;22.48;13.40;;;;;;;10.30;100.00;98227.47;5069974;28;20052;-61
2023/11/01 01:17:16;;;;;;;21.40;13.45;;;;;;;10.31;99.55;98213.94;5070015;28;20040;-61
2023/11/01 01:19:42;;;;;;;21.00;13.35;;;;;;;10.32;100.00;98206.78;5057581;28;20041;-60
2023/11/01 01:22:07;;;;;;;22.95;12.63;;;;;;;10.36;100.00;98216.59;5049972;28;20059;-59
2023/11/01 01:24:33;;;;;;;18.98;12.57;;;;;;;10.40;99.46;98211.56;5050950;28;20036;-62
2023/11/01 01:26:59;;;;;;;20.00;13.30;;;;;;;10.42;99.29;98204.16;5050048;28;20041;-59
2023/11/01 01:29:24;;;;;;;24.08;13.60;;;;;;;10.46;99.04;98208.63;5051395;28;20065;-61
2023/11/01 01:31:50;;;;;;;23.48;13.40;;;;;;;10.50;99.38;98214.22;5050937;28;20573;-59
2023/11/01 01:34:16;;;;;;;20.52;12.40;;;;;;;10.50;98.54;98205.44;5049323;28;20565;-61
2023/11/01 01:36:41;;;;;;;19.58;11.25;;;;;;;10.52;98.56;98206.00;5062684;28;20048;-59
2023/11/01 01:39:07;;;;;;;21.20;12.98;;;;;;;10.51;98.54;98210.50;5071122;28;20037;-60
2023/11/01 01:41:33;;;;;;;23.00;13.27;;;;;;;10.50;98.79;98193.03;5069711;28;20520;-58
2023/11/01 01:43:59;;;;;;;24.77;12.23;;;;;;;10.55;98.83;98200.16;5070921;28;20040;-60
2023/11/01 01:46:27;;;;;;;22.50;12.75;;;;;;;10.58;97.91;98195.13;5070899;28;20041;-59
2023/11/01 01:48:52;;;;;;;20.35;11.63;;;;;;;10.58;98.26;98192.47;5069661;28;20070;-59
2023/11/01 01:51:18;;;;;;;19.95;12.52;;;;;;;10.57;97.93;98190.09;5069713;28;20048;-60
2023/11/01 01:53:45;;;;;;;20.00;12.05;;;;;;;10.57;97.97;98192.75;5069586;28;20063;-59
2023/11/01 01:56:11;;;;;;;20.45;12.45;;;;;;;10.57;98.42;98190.88;5069619;28;20040;-60
2023/11/01 01:58:38;;;;;;;24.08;12.95;;;;;;;10.60;97.81;98193.00;5052739;28;20102;-59
2023/11/01 02:01:05;;;;;;;18.73;12.20;;;;;;;10.63;97.67;98191.69;5052888;28;20131;-59
2023/11/01 02:03:31;;;;;;;19.77;11.25;;;;;;;10.63;97.70;98196.97;5069529;28;20044;-59
2023/11/01 02:05:57;;;;;;;20.73;11.98;;;;;;;10.63;97.92;98184.53;5069478;28;20422;-58
2023/11/01 02:08:23;;;;;;;20.42;12.48;;;;;;;10.65;98.04;98194.88;5069783;28;20052;-59
2023/11/01 02:10:49;;;;;;;20.85;12.93;;;;;;;10.68;97.76;98191.69;5072412;28;20123;-59
2023/11/01 02:13:15;;;;;;;20.75;12.32;;;;;;;10.67;98.01;98195.38;5073059;28;20063;-60
2023/11/01 02:15:43;;;;;;;20.65;12.25;;;;;;;10.68;97.55;98192.47;5074348;28;20046;-60
2023/11/01 02:18:09;;;;;;;21.73;12.38;;;;;;;10.63;97.95;98181.88;5074214;28;20040;-60
2023/11/01 02:20:55;;;;;;;19.88;12.23;;;;;;;10.65;98.13;98182.41;5059849;28;20048;-59
2023/11/01 02:23:34;;;;;;;23.65;12.60;;;;;;;10.68;98.01;98175.78;5039985;28;20044;-60
2023/11/01 02:26:01;;;;;;;23.95;13.20;;;;;;;10.66;97.63;98172.59;5072972;28;20399;-61
2023/11/01 02:28:26;;;;;;;19.63;12.52;;;;;;;10.69;98.02;98172.84;5074111;28;20063;-59
2023/11/01 02:30:52;;;;;;;18.80;12.70;;;;;;;10.74;97.58;98166.75;5074326;28;20044;-60
2023/11/01 02:33:18;;;;;;;18.20;12.95;;;;;;;10.74;97.02;98168.63;5073964;28;20514;-60
2023/11/01 02:35:43;;;;;;;20.17;11.57;;;;;;;10.77;97.09;98168.88;5074344;28;20079;-62
2023/11/01 02:38:11;;;;;;;17.73;12.30;;;;;;;10.77;97.16;98168.88;5060438;28;20077;-60
2023/11/01 02:40:36;;;;;;;19.95;12.70;;;;;;;10.77;97.19;98166.22;5053948;28;20135;-60
2023/11/01 02:43:03;;;;;;;20.33;12.77;;;;;;;10.79;96.94;98164.06;5054211;28;20132;-59
2023/11/01 02:45:29;;;;;;;19.90;12.50;;;;;;;10.80;97.32;98164.91;5053923;28;20044;-59
2023/11/01 02:47:55;;;;;;;18.85;11.73;;;;;;;10.83;97.17;98165.16;5052380;28;20132;-60
2023/11/01 02:50:20;;;;;;;16.88;10.93;;;;;;;10.85;96.14;98157.72;5054050;28;20125;-62
2023/11/01 02:52:47;;;;;;;20.80;12.15;;;;;;;10.84;96.68;98166.72;5054024;28;20124;-59
2023/11/01 02:55:14;;;;;;;21.50;12.82;;;;;;;10.85;96.94;98170.16;5053679;28;20238;-59
2023/11/01 02:57:40;;;;;;;20.80;11.98;;;;;;;10.81;97.02;98174.44;5053582;28;20053;-59
2023/11/01 03:00:07;;;;;;;22.75;12.65;;;;;;;10.83;97.29;98167.78;5052376;28;20051;-61
2023/11/01 03:02:37;;;;;;;17.00;11.90;;;;;;;10.78;97.51;98174.97;5053736;28;20510;-60
2023/11/01 03:05:05;;;;;;;18.20;11.85;;;;;;;10.83;97.63;98170.44;5064057;28;20056;-60
2023/11/01 03:07:31;;;;;;;25.30;12.77;;;;;;;10.82;96.87;98165.41;5072246;28;20053;-60
2023/11/01 03:09:57;;;;;;;16.80;11.98;;;;;;;10.85;97.56;98159.56;5073406;28;20093;-61
2023/11/01 03:12:23;;;;;;;20.98;11.63;;;;;;;10.86;97.29;98155.88;5073692;28;20041;-60
2023/11/01 03:14:48;;;;;;;19.67;12.30;;;;;;;10.86;97.21;98155.88;5071925;28;20052;-60
2023/11/01 03:17:15;;;;;;;20.08;11.43;;;;;;;10.85;97.50;98152.44;5055340;28;20047;-61
2023/11/01 03:19:41;;;;;;;18.73;11.55;;;;;;;10.85;97.18;98152.44;5072268;28;20040;-61
2023/11/01 03:22:06;;;;;;;20.13;12.20;;;;;;;10.80;97.70;98159.59;5071020;28;20170;-59
2023/11/01 03:24:32;;;;;;;18.38;11.88;;;;;;;10.79;98.07;98166.72;5071757;28;20101;-62
2023/11/01 03:26:59;;;;;;;19.48;12.13;;;;;;;10.76;98.13;98166.47;5071707;28;20107;-59
2023/11/01 03:29:25;;;;;;;16.35;11.02;;;;;;;10.75;98.67;98164.91;5073020;28;20068;-60
2023/11/01 03:31:51;;;;;;;21.95;11.95;;;;;;;10.79;98.48;98163.28;5073099;28;20125;-60
2023/11/01 03:34:16;;;;;;;20.23;11.75;;;;;;;10.80;98.83;98151.66;5071581;28;20067;-61
2023/11/01 03:36:42;;;;;;;22.40;12.57;;;;;;;10.82;98.72;98160.09;5071572;28;20051;-60
2023/11/01 03:39:09;;;;;;;22.05;12.80;;;;;;;10.82;98.54;98160.88;5071808;28;20051;-60
2023/11/01 03:41:39;;;;;;;18.30;11.68;;;;;;;10.84;98.86;98150.03;5072928;28;20089;-59
2023/11/01 03:44:05;;;;;;;23.10;11.52;;;;;;;10.83;98.41;98137.84;5071420;28;20044;-58
2023/11/01 03:46:31;;;;;;;17.88;11.73;;;;;;;10.81;98.36;98126.72;5072877;28;20416;-59
2023/11/01 03:48:57;;;;;;;19.90;12.00;;;;;;;10.78;99.10;98109.50;5072544;28;20086;-61
2023/11/01 03:51:22;;;;;;;21.13;12.00;;;;;;;10.81;99.28;98121.41;5072835;28;20048;-60
2023/11/01 03:53:48;;;;;;;22.65;12.13;;;;;;;10.77;99.28;98099.97;5072762;28;20048;-59
2023/11/01 03:56:14;;;;;;;20.50;12.60;;;;;;;10.71;99.88;98101.03;5054663;28;20041;-60
2023/11/01 03:58:39;;;;;;;21.52;12.40;;;;;;;10.68;100.00;98105.03;5072233;28;20071;-60
2023/11/01 04:01:05;;;;;;;22.30;12.82;;;;;;;10.71;99.88;98094.91;5072374;28;20044;-59
2023/11/01 04:03:31;;;;;;;19.48;12.07;;;;;;;10.70;99.76;98102.09;5072569;28;20060;-60
2023/11/01 04:05:57;;;;;;;24.33;12.25;;;;;;;10.71;100.00;98106.34;5072344;28;20053;-61
2023/11/01 04:08:23;;;;;;;22.48;12.80;;;;;;;10.69;100.00;98106.59;5072110;28;20040;-57
2023/11/01 04:10:49;;;;;;;21.20;11.73;;;;;;;10.77;100.00;98107.13;5072033;28;20052;-60
2023/11/01 04:13:15;;;;;;;22.70;13.15;;;;;;;10.76;100.00;98098.34;5072188;28;20118;-58
2023/11/01 04:15:41;;;;;;;24.98;12.75;;;;;;;10.78;100.00;98098.88;5072031;28;20078;-59
2023/11/01 04:18:07;;;;;;;20.10;12.30;;;;;;;10.78;100.00;98103.41;5066285;28;20079;-60
2023/11/01 04:20:33;;;;;;;22.85;13.38;;;;;;;10.78;100.00;98098.88;5060811;28;20075;-60
2023/11/01 04:22:58;;;;;;;26.15;12.40;;;;;;;10.81;100.00;98093.03;5061445;28;20128;-60
2023/11/01 04:25:24;;;;;;;19.05;12.18;;;;;;;10.82;100.00;98093.84;5062123;28;20049;-59
2023/11/01 04:27:50;;;;;;;21.30;12.57;;;;;;;10.85;100.00;98098.59;5067913;28;20449;-60
2023/11/01 04:30:16;;;;;;;24.83;12.80;;;;;;;10.85;100.00;98094.09;5071035;28;20047;-61
2023/11/01 04:32:43;;;;;;;22.00;13.43;;;;;;;10.90;99.83;98090.63;5071889;28;20045;-60
2023/11/01 04:35:09;;;;;;;20.45;13.00;;;;;;;10.91;100.00;98089.56;5071680;28;20060;-61
2023/11/01 04:37:40;;;;;;;22.35;12.70;;;;;;;10.93;100.00;98095.38;5070308;28;20044;-61
2023/11/01 04:40:07;;;;;;;23.23;12.70;;;;;;;10.94;99.79;98102.25;5071913;28;20040;-61
2023/11/01 04:42:32;;;;;;;20.20;12.52;;;;;;;11.00;99.53;98093.25;5071743;28;20109;-60
2023/11/01 04:44:58;;;;;;;20.00;12.57;;;;;;;11.04;99.78;98096.16;5070130;28;20125;-61
2023/11/01 04:47:23;;;;;;;20.35;12.68;;;;;;;11.00;99.71;98103.84;5071692;28;20097;-60
2023/11/01 04:49:49;;;;;;;22.27;13.40;;;;;;;11.02;99.40;98117.63;5071354;28;20124;-61
2023/11/01 04:52:15;;;;;;;22.75;14.00;;;;;;;11.08;99.44;98113.88;5071561;28;20530;-60
2023/11/01 04:54:41;;;;;;;23.17;13.98;;;;;;;11.18;99.01;98121.03;5071473;28;20051;-63
2023/11/01 04:57:06;;;;;;;20.25;12.32;;;;;;;11.26;98.75;98120.44;5071325;28;20173;-60
2023/11/01 04:59:33;;;;;;;21.80;13.30;;;;;;;11.33;98.15;98112.19;5069778;28;20131;-60
2023/11/01 05:01:58;;;;;;;20.23;12.18;;;;;;;11.39;97.40;98127.03;5069481;28;20036;-60
2023/11/01 05:04:24;;;;;;;22.23;12.43;;;;;;;11.46;97.07;98126.72;5070255;28;20129;-60
2023/11/01 05:06:53;;;;;;;20.92;13.00;;;;;;;11.53;96.57;98128.03;5069001;28;20044;-61
2023/11/01 05:09:18;;;;;;;17.92;11.80;;;;;;;11.62;96.12;98124.75;5071558;28;20136;-59
2023/11/01 05:11:47;;;;;;;25.15;12.30;;;;;;;11.46;95.10;98100.19;5069805;28;20174;-62
2023/11/01 05:14:13;;;;;;;26.10;12.73;;;;;;;11.67;95.33;98117.56;5069863;28;20048;-59
2023/11/01 05:16:40;;;;;;;23.45;12.90;;;;;;;11.73;95.05;98123.63;5071045;28;20059;-62
2023/11/01 05:19:08;;;;;;;21.02;12.13;;;;;;;11.81;94.60;98123.06;5070962;28;20044;-61
2023/11/01 05:21:37;;;;;;;23.77;12.52;;;;;;;11.83;94.40;98120.94;5070752;28;20406;-61
2023/11/01 05:24:06;;;;;;;20.95;12.48;;;;;;;11.86;93.97;98120.41;5071104;28;20052;-62
2023/11/01 05:26:34;;;;;;;20.35;12.70;;;;;;;11.92;94.11;98129.13;5070946;28;20040;-61
2023/11/01 05:29:07;;;;;;;20.77;12.52;;;;;;;11.96;93.33;98130.16;5069928;28;20051;-61
2023/11/01 05:31:32;;;;;;;24.60;13.02;;;;;;;11.95;93.13;98117.97;5071188;28;20047;-59
2023/11/01 05:33:59;;;;;;;24.50;12.27;;;;;;;11.96;93.10;98120.31;5071004;28;20127;-60
2023/11/01 05:36:26;;;;;;;18.08;12.52;;;;;;;11.99;92.71;98114.44;5070817;28;20044;-59
2023/11/01 05:38:52;;;;;;;19.63;12.25;;;;;;;12.03;92.69;98125.34;5070859;28;20245;-60
2023/11/01 05:41:18;;;;;;;18.05;11.82;;;;;;;12.08;92.51;98122.63;5069576;28;20040;-58
2023/11/01 05:43:44;;;;;;;20.15;13.15;;;;;;;12.10;91.97;98117.84;5070551;28;20273;-58
2023/11/01 05:46:09;;;;;;;19.45;11.82;;;;;;;12.13;91.89;98111.19;5071597;28;20040;-57
2023/11/01 05:48:35;;;;;;;22.00;12.35;;;;;;;12.20;91.55;98117.72;5073297;28;20052;-58
2023/11/01 05:51:02;;;;;;;18.63;11.75;;;;;;;12.27;91.05;98123.53;5073260;28;20052;-58
2023/11/01 05:53:28;;;;;;;19.00;11.18;;;;;;;12.24;90.90;98113.47;5055535;28;20045;-59
2023/11/01 05:55:54;;;;;;;20.52;12.05;;;;;;;12.25;90.98;98115.03;5073889;28;20043;-59
2023/11/01 05:58:21;;;;;;;19.70;11.35;;;;;;;12.28;91.03;98111.81;5062370;28;20419;-57
2023/11/01 06:00:47;;;;;;;21.98;12.30;;;;;;;12.33;90.83;98116.31;5054242;28;20047;-58
2023/11/01 06:03:13;;;;;;;20.27;12.70;;;;;;;12.37;90.14;98125.31;5053155;28;20491;-58
2023/11/01 06:05:40;;;;;;;19.25;11.50;;;;;;;12.36;90.29;98114.97;5060578;28;20056;-58
2023/11/01 06:08:07;;;;;;;20.27;12.05;;;;;;;12.39;90.22;98123.16;5054746;28;20065;-61
2023/11/01 06:10:33;;;;;;;20.83;12.10;;;;;;;12.53;89.81;98119.84;5054139;28;20040;-60
2023/11/01 06:13:00;;;;;;;22.02;11.65;;;;;;;12.61;88.83;98124.56;5036232;28;20049;-57
2023/11/01 06:15:26;;;;;;;21.00;12.15;;;;;;;12.65;88.76;98109.63;5052749;28;20040;-60
2023/11/01 06:17:52;;;;;;;23.50;12.52;;;;;;;12.65;88.85;98123.72;5054372;28;20052;-61
2023/11/01 06:20:18;;;;;;;16.38;11.30;;;;;;;12.63;88.84;98131.19;5052656;28;20053;-59
2023/11/01 06:22:44;;;;;;;23.48;11.77;;;;;;;12.66;88.73;98127.94;5052839;28;20044;-59
2023/11/01 06:25:10;;;;;;;20.75;11.40;;;;;;;12.69;87.98;98122.06;5053807;28;20137;-61
2023/11/01 06:27:36;;;;;;;20.20;11.38;;;;;;;12.75;88.05;98124.69;5069245;28;20037;-59
2023/11/01 06:30:05;;;;;;;20.27;11.80;;;;;;;12.76;87.85;98112.97;5063933;28;20391;-60
2023/11/01 06:32:32;;;;;;;20.73;11.27;;;;;;;12.80;87.51;98112.13;5061253;28;20502;-59
2023/11/01 06:35:01;;;;;;;23.25;12.32;;;;;;;12.78;87.16;98102.84;5063385;28;20049;-61
2023/11/01 06:37:27;;;;;;;20.30;14.05;;;;;;;12.80;87.77;98101.50;5061302;28;20040;-61
2023/11/01 06:39:53;;;;;;;22.20;11.40;;;;;;;12.86;87.50;98116.31;5047287;28;20130;-60
2023/11/01 06:42:19;;;;;;;17.73;11.82;;;;;;;12.86;87.00;98110.22;5059201;28;20555;-59
2023/11/01 06:44:45;;;;;;;18.10;12.18;;;;;;;12.85;86.92;98119.25;5053740;28;20051;-59
2023/11/01 06:47:10;;;;;;;21.17;12.20;;;;;;;12.84;87.25;98126.44;5073390;28;20036;-59
2023/11/01 06:49:39;;;;;;;17.60;11.50;;;;;;;12.85;87.06;98128.03;5072139;28;20564;-60
2023/11/01 06:52:06;;;;;;;19.38;11.50;;;;;;;12.82;86.76;98122.47;5052982;28;20115;-60
2023/11/01 06:54:32;;;;;;;18.45;12.02;;;;;;;12.90;87.06;98129.84;5052817;28;20045;-60
2023/11/01 06:56:58;;;;;;;20.80;11.75;;;;;;;12.90;86.53;98135.16;5051960;28;20394;-61
2023/11/01 06:59:24;;;;;;;26.33;12.10;;;;;;;12.87;86.58;98131.19;5053366;28;20071;-58
2023/11/01 07:01:49;;;;;;;21.27;11.90;;;;;;;12.92;86.61;98133.81;5051880;28;20037;-59
2023/11/01 07:04:15;;;;;;;18.35;12.05;;;;;;;12.95;86.27;98141.22;5058066;28;20040;-62
2023/11/01 07:06:43;;;;;;;19.38;12.02;;;;;;;12.94;86.00;98134.31;5053584;28;20049;-61
2023/11/01 07:09:10;;;;;;;21.20;11.27;;;;;;;12.98;86.04;98133.75;5053455;28;20147;-59
2023/11/01 07:11:36;;;;;;;20.17;11.82;;;;;;;13.06;86.21;98131.25;5053052;28;20560;-61
2023/11/01 07:14:04;;;;;;;25.05;11.82;;;;;;;13.13;85.47;98131.69;5053540;28;20128;-59
2023/11/01 07:16:31;;;;;;;19.10;12.23;;;;;;;13.14;85.32;98133.28;5062054;28;20037;-58
2023/11/01 07:19:00;;;;;;;17.95;12.00;;;;;;;13.25;85.29;98133.16;5019792;28;20057;-58
2023/11/01 07:21:25;;;;;;;20.92;12.32;;;;;;;13.19;84.88;98133.22;5060900;28;20121;-61
2023/11/01 07:23:51;;;;;;;24.30;13.48;;;;;;;13.24;85.40;98135.03;5062243;28;20049;-59
2023/11/01 07:26:17;;;;;;;25.30;13.05;;;;;;;13.22;85.60;98129.19;5061074;28;20045;-59
2023/11/01 07:28:44;;;;;;;18.60;12.52;;;;;;;13.27;84.89;98125.72;5059870;28;20116;-61
2023/11/01 07:31:10;;;;;;;18.02;12.02;;;;;;;13.27;84.71;98126.50;5062696;28;20090;-60
2023/11/01 07:33:37;;;;;;;19.33;12.30;;;;;;;13.30;84.88;98122.50;5061480;28;20044;-60
2023/11/01 07:36:04;;;;;;;23.92;13.70;;;;;;;13.32;84.53;98125.63;5061919;28;20137;-58
2023/11/01 07:38:29;;;;;;;19.77;12.60;;;;;;;13.37;84.61;98125.56;5060983;28;20070;-60
2023/11/01 07:40:55;;;;;;;22.10;12.82;;;;;;;13.36;84.05;98124.78;5060186;28;20040;-59
2023/11/01 07:43:22;;;;;;;22.13;12.73;;;;;;;13.30;84.25;98120.63;5061693;28;20032;-59
2023/11/01 07:45:48;;;;;;;19.35;12.25;;;;;;;13.28;84.63;98132.63;5060267;28;20036;-59
2023/11/01 07:48:14;;;;;;;20.98;13.20;;;;;;;13.25;84.94;98131.31;5062243;28;20052;-60
2023/11/01 07:50:41;;;;;;;19.90;13.25;;;;;;;13.24;85.31;98121.72;5057348;28;20414;-61
2023/11/01 07:53:07;;;;;;;21.55;12.98;;;;;;;13.29;85.19;98116.34;5052666;28;20062;-61
2023/11/01 07:55:33;;;;;;;19.92;12.82;;;;;;;13.36;84.48;98119.47;5060016;28;20037;-62
2023/11/01 07:57:58;;;;;;;20.30;12.95;;;;;;;13.36;84.63;98116.81;5072362;28;20529;-60
2023/11/01 08:00:24;;;;;;;22.00;12.95;;;;;;;13.48;84.05;98124.38;5071887;28;20052;-62
2023/11/01 08:02:49;;;;;;;20.00;12.18;;;;;;;13.54;83.95;98122.44;5072029;28;20135;-60
2023/11/01 08:05:15;;;;;;;24.13;12.75;;;;;;;13.49;83.28;98114.50;5064506;28;20235;-62
2023/11/01 08:07:41;;;;;;;19.17;12.65;;;;;;;13.47;83.73;98120.13;5050446;28;20127;-60
2023/11/01 08:10:07;;;;;;;19.20;12.45;;;;;;;13.47;83.55;98121.97;5051617;28;20066;-62
2023/11/01 08:12:33;;;;;;;23.02;12.95;;;;;;;13.55;84.17;98118.69;5052294;28;20041;-62
2023/11/01 08:14:58;;;;;;;22.70;12.27;;;;;;;13.55;83.13;98119.47;5050413;28;20051;-60
2023/11/01 08:17:24;;;;;;;20.80;12.90;;;;;;;13.55;83.48;98116.03;5060203;28;20032;-62
2023/11/01 08:19:49;;;;;;;20.52;12.63;;;;;;;13.58;83.20;98115.44;5058956;28;20044;-62
2023/11/01 08:22:15;;;;;;;19.33;12.60;;;;;;;13.67;82.86;98116.38;5025082;28;20037;-60
2023/11/01 08:24:41;;;;;;;21.20;12.27;;;;;;;13.70;82.85;98113.13;5051331;28;20489;-62
2023/11/01 08:27:07;;;;;;;20.15;12.23;;;;;;;13.71;82.61;98119.28;5050433;28;20037;-60
2023/11/01 08:29:35;;;;;;;19.20;12.38;;;;;;;13.75;82.75;98115.72;5051705;28;20045;-62
2023/11/01 08:32:02;;;;;;;18.58;12.60;;;;;;;13.76;82.30;98117.31;5062117;28;20037;-61
2023/11/01 08:34:27;;;;;;;19.02;12.15;;;;;;;13.81;82.62;98109.25;5060202;28;20560;-60
2023/11/01 08:36:53;;;;;;;19.70;12.57;;;;;;;13.78;81.79;98096.50;5059909;28;20044;-62
2023/11/01 08:39:18;;;;;;;18.45;12.68;;;;;;;13.84;82.03;98111.34;5060858;28;20055;-62
2023/11/01 08:41:44;;;;;;;17.92;11.85;;;;;;;13.90;81.88;98101.41;5060749;28;20051;-59
2023/11/01 08:44:10;;;;;;;26.85;12.48;;;;;;;13.78;82.26;98107.16;5060710;28;20044;-60
2023/11/01 08:46:35;;;;;;;19.20;12.27;;;;;;;13.83;82.15;98109.75;5060179;28;20410;-60
2023/11/01 08:49:01;;;;;;;16.65;11.65;;;;;;;13.84;81.81;98108.66;5058941;28;20530;-62
2023/11/01 08:51:27;;;;;;;20.67;12.32;;;;;;;13.85;81.50;98099.63;5056597;28;20123;-61
2023/11/01 08:53:52;;;;;;;17.38;12.05;;;;;;;13.85;81.83;98102.28;5060729;28;20044;-60
2023/11/01 08:56:18;;;;;;;19.38;12.32;;;;;;;13.85;81.76;98094.28;5061680;28;20066;-59
2023/11/01 08:58:45;;;;;;;20.42;12.27;;;;;;;13.83;81.33;98082.34;5060210;28;20148;-60
2023/11/01 09:01:12;;;;;;;23.02;12.93;;;;;;;13.90;81.11;98082.75;5061607;28;20045;-59
2023/11/01 09:03:38;;;;;;;21.35;11.70;;;;;;;13.81;81.49;98079.16;5052062;28;20049;-59
2023/11/01 09:06:04;;;;;;;20.65;12.25;;;;;;;13.87;81.50;98080.66;5070687;28;20568;-60
2023/11/01 09:08:29;;;;;;;21.92;11.90;;;;;;;13.94;81.11;98080.28;5070919;28;20422;-59
2023/11/01 09:10:56;;;;;;;18.25;12.27;;;;;;;14.04;81.09;98085.47;5059784;28;20040;-59
2023/11/01 09:13:22;;;;;;;21.05;11.95;;;;;;;14.05;80.08;98085.16;5051152;28;20535;-60
2023/11/01 09:15:48;;;;;;;20.00;11.50;;;;;;;14.09;80.17;98080.06;5050468;28;20466;-59
2023/11/01 09:18:13;;;;;;;22.10;12.00;;;;;;;13.95;80.21;98069.34;5050891;28;20049;-58
2023/11/01 09:20:39;;;;;;;19.42;12.43;;;;;;;14.11;80.26;98069.88;5041137;28;20043;-61
2023/11/01 09:23:05;;;;;;;17.80;11.18;;;;;;;14.15;79.94;98067.41;5071275;28;20078;-60
2023/11/01 09:25:31;;;;;;;17.52;11.50;;;;;;;14.16;79.89;98064.47;5062729;28;20095;-61
2023/11/01 09:27:57;;;;;;;19.02;11.90;;;;;;;14.10;79.64;98062.97;5058924;28;20114;-58
2023/11/01 09:30:23;;;;;;;20.65;11.07;;;;;;;14.11;79.89;98053.91;5059942;28;20048;-59
2023/11/01 09:32:49;;;;;;;20.13;11.52;;;;;;;14.23;80.31;98061.41;5060061;28;20078;-59
2023/11/01 09:35:14;;;;;;;18.85;11.75;;;;;;;14.21;79.93;98052.94;5058443;28;20124;-61
2023/11/01 09:37:40;;;;;;;17.20;11.05;;;;;;;14.25;79.97;98065.38;5059515;28;20033;-60
2023/11/01 09:40:10;;;;;;;17.13;11.10;;;;;;;14.22;79.12;98049.97;5058977;28;20049;-61
2023/11/01 09:42:37;;;;;;;;;;;;;;;14.21;79.32;98050.28;5058388;28;20036;-58
2023/11/01 09:45:09;;;;;;;19.13;10.40;;;;;;;14.20;79.65;98040.69;5050420;28;19925;-60
2023/11/01 09:47:36;;;;;;;17.08;11.32;;;;;;;14.19;80.15;98041.78;5049482;28;20068;-61
2023/11/01 09:50:03;;;;;;;20.25;11.45;;;;;;;14.14;79.77;98039.97;5049315;28;20095;-61
2023/11/01 09:52:30;;;;;;;19.95;10.63;;;;;;;14.02;79.76;98029.00;5051060;28;20044;-60
2023/11/01 09:54:57;;;;;;;17.30;10.70;;;;;;;13.96;80.72;98036.28;5066261;28;20515;-61
2023/11/01 09:57:24;;;;;;;15.05;10.82;;;;;;;13.92;80.19;98035.31;5050493;28;20102;-62
2023/11/01 09:59:50;;;;;;;21.15;11.35;;;;;;;13.96;80.88;98043.50;5053836;28;20494;-61
2023/11/01 10:02:17;;;;;;;14.95;10.23;;;;;;;13.90;80.52;98032.13;5062453;28;20051;-59
2023/11/01 10:04:43;;;;;;;17.42;10.98;;;;;;;13.93;81.34;98039.53;5068411;28;20571;-60
2023/11/01 10:07:10;;;;;;;15.05;11.05;;;;;;;13.88;80.42;98030.84;5068472;28;20056;-60
2023/11/01 10:09:38;;;;;;;13.95;9.60;;;;;;;13.90;80.94;98026.81;5069497;28;20163;-61
2023/11/01 10:12:08;;;;;;;14.52;10.43;;;;;;;13.87;81.27;98027.41;5069928;28;20044;-59
2023/11/01 10:14:35;;;;;;;16.05;10.73;;;;;;;13.91;80.91;98023.06;5070712;28;20036;-61
2023/11/01 10:17:01;;;;;;;17.38;10.75;;;;;;;13.87;81.04;98032.72;5059165;28;20033;-61
2023/11/01 10:19:27;;;;;;;21.95;11.52;;;;;;;13.92;81.09;98032.66;5058796;28;20041;-61
2023/11/01 10:21:53;;;;;;;22.58;10.07;;;;;;;13.93;81.26;98028.09;5055359;28;20044;-59
2023/11/01 10:24:23;;;;;;;14.20;10.15;;;;;;;13.92;80.87;98027.31;5032817;28;20045;-59
2023/11/01 10:26:56;;;;;;;18.42;10.48;;;;;;;13.97;81.89;98027.25;5050019;28;20088;-61
2023/11/01 10:29:27;;;;;;;16.42;10.45;;;;;;;14.04;80.85;98018.84;5050130;28;20060;-59
2023/11/01 10:31:59;;;;;;;15.77;11.35;;;;;;;14.03;80.41;98019.91;5051888;28;20048;-59
2023/11/01 10:34:29;;;;;;;21.30;10.52;;;;;;;13.98;80.34;98025.34;5053925;28;20049;-61
2023/11/01 10:36:57;;;;;;;17.10;10.02;;;;;;;13.94;80.38;98027.81;5053825;28;20092;-60
2023/11/01 10:39:23;;;;;;;18.40;9.50;;;;;;;14.00;80.42;98034.63;5053686;28;20055;-58
2023/11/01 10:41:52;;;;;;;22.70;10.40;;;;;;;14.00;79.94;98028.50;5053564;28;20040;-58
2023/11/01 10:44:22;;;;;;;18.65;9.55;;;;;;;14.01;80.03;98030.88;5051112;28;20133;-60
2023/11/01 10:46:48;;;;;;;17.43;8.90;;;;;;;14.02;80.25;98021.81;5051940;28;20130;-59
2023/11/01 10:49:15;;;;;;;16.48;9.90;;;;;;;14.05;80.11;98031.88;5053232;28;20619;-61
2023/11/01 10:51:42;;;;;;;18.17;9.68;;;;;;;14.02;79.53;98029.78;5051876;28;20064;-60
2023/11/01 10:54:08;;;;;;;18.17;10.18;;;;;;;13.99;80.19;98024.25;5053205;28;20053;-61
2023/11/01 10:56:34;;;;;;;15.30;9.77;;;;;;;13.97;79.76;98021.91;5053201;28;20037;-59
2023/11/01 10:59:22;;;;;;;16.02;9.77;;;;;;;13.93;80.53;98018.22;5064970;28;20059;-60
2023/11/01 11:01:54;;;;;;;18.92;9.43;;;;;;;13.91;80.55;98027.59;5060188;28;20130;-61
2023/11/01 11:04:43;;;;;;;15.73;9.00;;;;;;;13.89;80.29;98019.13;5058095;28;20186;-61
2023/11/01 11:07:19;;;;;;;14.13;9.52;;;;;;;13.87;80.34;98016.75;5073729;28;20526;-61
2023/11/01 11:09:45;;;;;;;17.35;9.68;;;;;;;13.81;80.79;98015.25;5073424;28;20437;-60
2023/11/01 11:12:15;;;;;;;15.50;8.98;;;;;;;13.81;80.85;98016.03;5073002;28;20033;-59
2023/11/01 11:14:40;;;;;;;16.92;9.73;;;;;;;13.79;80.67;98007.53;5072828;28;20052;-60